Time;durP1;ratioP1;P1;durP2;ratioP2;P2;SDS_P1;SDS_P2;PMS_P1;PMS_P2;Temp;Humidity;BMP_temperature;BMP_pressure;BME280_temperature;BME280_humidity;BME280_pressure;Samples;Min_cycle;Max_cycle;Signal;HPM_P1;HPM_P2
2024/02/07 00:01:44;;;;;;;4.27;2.57;;;;;;;6.18;66.28;96085.88;5022420;28;20190;-69
2024/02/07 00:04:10;;;;;;;2.90;2.20;;;;;;;6.05;66.26;96086.25;5028139;28;20241;-69
2024/02/07 00:06:35;;;;;;;3.70;2.47;;;;;;;6.27;65.85;96080.38;5027850;28;20191;-69
2024/02/07 00:09:01;;;;;;;5.90;2.80;;;;;;;6.00;66.69;96076.88;5025107;28;20249;-69
2024/02/07 00:11:26;;;;;;;4.30;2.97;;;;;;;6.12;66.49;96076.50;5029388;28;20599;-68
2024/02/07 00:13:51;;;;;;;3.13;2.83;;;;;;;6.00;66.72;96072.53;5029476;28;20195;-69
2024/02/07 00:16:17;;;;;;;3.90;2.83;;;;;;;6.04;66.56;96074.13;5030056;28;20280;-69
2024/02/07 00:18:42;;;;;;;4.37;2.50;;;;;;;5.91;67.38;96065.81;5029502;28;20248;-68
2024/02/07 00:21:09;;;;;;;3.10;2.70;;;;;;;5.96;67.03;96065.72;5026887;28;20186;-70
2024/02/07 00:23:34;;;;;;;4.27;2.80;;;;;;;5.94;67.22;96064.91;5020749;28;20192;-70
2024/02/07 00:25:59;;;;;;;3.30;2.83;;;;;;;5.89;67.27;96069.38;5027810;28;20489;-69
2024/02/07 00:28:25;;;;;;;2.97;2.67;;;;;;;5.93;67.07;96060.56;5027920;28;20222;-70
2024/02/07 00:30:52;;;;;;;4.40;3.50;;;;;;;5.91;67.02;96063.22;5027863;28;20225;-69
2024/02/07 00:33:17;;;;;;;2.77;2.30;;;;;;;5.83;67.57;96066.94;5027393;28;20226;-69
2024/02/07 00:35:43;;;;;;;3.33;2.83;;;;;;;5.88;67.70;96057.22;5020071;28;20573;-70
2024/02/07 00:38:08;;;;;;;3.20;2.73;;;;;;;5.85;67.62;96057.34;5027662;28;20171;-69
2024/02/07 00:40:34;;;;;;;4.03;2.63;;;;;;;5.77;68.06;96057.56;5027456;28;20183;-69
2024/02/07 00:42:59;;;;;;;2.70;2.50;;;;;;;5.70;68.28;96053.44;5027307;28;20646;-69
2024/02/07 00:45:25;;;;;;;2.97;2.30;;;;;;;5.66;68.35;96050.06;5027391;28;20192;-69
2024/02/07 00:47:51;;;;;;;3.73;2.67;;;;;;;5.82;67.97;96047.88;5024007;28;20183;-69
2024/02/07 00:50:17;;;;;;;9.03;4.63;;;;;;;5.67;68.41;96046.59;5023288;28;20188;-69
2024/02/07 00:52:43;;;;;;;4.67;2.80;;;;;;;5.88;67.93;96042.47;5023390;28;20469;-67
2024/02/07 00:55:09;;;;;;;2.50;2.10;;;;;;;5.80;68.18;96039.25;5027238;28;20211;-68
2024/02/07 00:57:35;;;;;;;4.10;2.93;;;;;;;5.78;68.42;96048.00;5027266;28;20196;-69
2024/02/07 01:00:01;;;;;;;7.43;2.80;;;;;;;5.84;68.02;96037.41;5027389;28;20457;-70
2024/02/07 01:02:26;;;;;;;3.33;2.60;;;;;;;5.81;68.31;96032.28;5019746;28;20176;-68
2024/02/07 01:04:52;;;;;;;3.97;2.70;;;;;;;5.86;68.16;96035.63;5017902;28;20454;-69
2024/02/07 01:07:18;;;;;;;4.80;2.90;;;;;;;5.88;68.03;96036.41;5027506;28;20194;-68
2024/02/07 01:09:43;;;;;;;4.97;2.73;;;;;;;5.80;68.02;96039.25;5026394;28;20248;-69
2024/02/07 01:12:09;;;;;;;3.10;2.43;;;;;;;5.77;68.49;96030.69;5026594;28;20570;-68
2024/02/07 01:14:34;;;;;;;5.53;2.60;;;;;;;5.82;68.54;96029.63;5027031;28;20187;-69
2024/02/07 01:17:00;;;;;;;5.00;2.70;;;;;;;5.72;69.11;96030.84;5024245;28;20191;-69
2024/02/07 01:19:25;;;;;;;5.27;2.63;;;;;;;5.89;68.24;96033.75;5027092;28;20184;-68
2024/02/07 01:21:51;;;;;;;4.20;3.10;;;;;;;5.87;68.30;96026.91;5024975;28;20658;-68
2024/02/07 01:24:16;;;;;;;4.93;2.97;;;;;;;6.02;68.02;96020.38;5026468;28;20175;-68
2024/02/07 01:26:41;;;;;;;5.87;3.03;;;;;;;5.92;68.38;96030.19;5026912;28;20953;-69
2024/02/07 01:29:07;;;;;;;4.73;3.00;;;;;;;5.87;68.44;96030.34;5026100;28;20167;-69
2024/02/07 01:31:32;;;;;;;3.53;2.73;;;;;;;5.90;68.58;96027.63;5024491;28;20182;-67
2024/02/07 01:33:58;;;;;;;4.63;3.03;;;;;;;5.99;68.42;96023.94;5016107;28;20195;-69
2024/02/07 01:36:24;;;;;;;3.80;2.73;;;;;;;6.05;68.00;96013.31;5025591;28;20817;-69
2024/02/07 01:38:50;;;;;;;2.67;2.27;;;;;;;6.18;67.50;96018.97;5025978;28;20437;-68
2024/02/07 01:41:16;;;;;;;6.80;3.10;;;;;;;6.06;67.97;96022.81;5026082;28;20279;-68
2024/02/07 01:43:42;;;;;;;4.00;2.97;;;;;;;6.04;67.85;96018.56;5026440;28;20517;-69
2024/02/07 01:46:07;;;;;;;3.90;2.60;;;;;;;6.06;68.02;96017.63;5016292;28;20290;-70
2024/02/07 01:48:33;;;;;;;3.30;2.70;;;;;;;5.98;68.27;96004.00;5018685;28;20171;-70
2024/02/07 01:51:02;;;;;;;5.83;2.77;;;;;;;5.96;68.46;96018.81;5025280;28;20175;-69
2024/02/07 01:53:29;;;;;;;3.80;2.80;;;;;;;6.01;68.14;96003.91;5019499;28;20203;-70
2024/02/07 01:55:55;;;;;;;3.43;2.47;;;;;;;6.07;68.24;95992.41;5025292;28;20441;-69
2024/02/07 01:58:22;;;;;;;2.50;2.17;;;;;;;6.02;68.06;95989.97;5025538;28;20864;-68
2024/02/07 02:00:48;;;;;;;3.63;2.57;;;;;;;6.05;68.30;95989.03;5025326;28;20410;-70
2024/02/07 02:03:13;;;;;;;2.97;2.60;;;;;;;6.05;68.03;95987.28;5018909;28;20438;-69
2024/02/07 02:05:41;;;;;;;4.30;2.90;;;;;;;6.11;67.81;95979.25;5021664;28;20434;-69
2024/02/07 02:08:08;;;;;;;4.37;3.30;;;;;;;6.21;67.64;95971.97;5017213;28;20183;-68
2024/02/07 02:10:33;;;;;;;3.77;2.83;;;;;;;5.94;68.61;95973.75;5026405;28;20415;-70
2024/02/07 02:12:59;;;;;;;4.10;3.10;;;;;;;5.96;68.46;95973.72;5025989;28;20461;-70
2024/02/07 02:15:25;;;;;;;6.57;3.37;;;;;;;6.02;68.32;95969.13;5025879;28;20665;-69
2024/02/07 02:17:52;;;;;;;3.53;2.63;;;;;;;5.97;68.60;95962.38;5021675;28;20180;-68
2024/02/07 02:20:18;;;;;;;4.50;2.73;;;;;;;5.85;69.12;95948.81;5024827;28;20178;-69
2024/02/07 02:23:05;;;;;;;4.13;2.50;;;;;;;6.02;68.70;95937.03;5016911;28;20419;-69
2024/02/07 02:25:59;;;;;;;4.67;3.37;;;;;;;5.90;68.95;95954.72;5026154;28;20444;-69
2024/02/07 02:28:42;;;;;;;3.83;2.80;;;;;;;5.80;69.07;95953.31;5026265;28;20445;-69
2024/02/07 02:31:13;;;;;;;2.73;2.33;;;;;;;5.80;69.15;95939.47;5025539;28;20453;-69
2024/02/07 02:33:39;;;;;;;3.33;2.80;;;;;;;5.84;69.20;95941.91;5019686;28;20879;-68
2024/02/07 02:36:06;;;;;;;8.00;3.40;;;;;;;5.81;69.14;95941.16;5023948;28;20525;-69
2024/02/07 02:38:37;;;;;;;4.27;2.73;;;;;;;5.88;68.86;95940.91;5026233;28;20595;-69
2024/02/07 02:41:03;;;;;;;4.77;2.67;;;;;;;5.86;68.98;95931.47;5019487;28;20471;-69
2024/02/07 02:43:30;;;;;;;4.37;2.80;;;;;;;5.79;69.27;95935.13;5026178;28;20470;-68
2024/02/07 02:45:55;;;;;;;6.10;3.57;;;;;;;5.76;69.37;95930.03;5022127;28;20451;-69
2024/02/07 02:48:21;;;;;;;6.80;3.50;;;;;;;5.78;69.25;95931.69;5025911;28;20445;-69
2024/02/07 02:50:47;;;;;;;5.10;3.70;;;;;;;5.83;69.32;95936.75;5025814;28;20172;-69
2024/02/07 02:53:13;;;;;;;4.20;2.77;;;;;;;5.73;69.46;95934.44;5013417;28;20208;-69
2024/02/07 02:55:39;;;;;;;5.63;3.30;;;;;;;5.81;69.33;95930.72;5021727;28;20440;-69
2024/02/07 02:58:05;;;;;;;5.30;3.30;;;;;;;5.96;68.85;95925.06;5026498;28;20180;-69
2024/02/07 03:00:30;;;;;;;5.47;3.10;;;;;;;5.90;69.14;95917.41;5023750;28;20491;-67
2024/02/07 03:02:59;;;;;;;6.27;3.53;;;;;;;5.86;69.33;95914.06;5016557;28;20255;-68
2024/02/07 03:08:16;;;;;;;4.13;3.17;;;;;;;5.92;69.43;95919.06;5026294;28;20422;-69
2024/02/07 03:10:43;;;;;;;3.87;2.80;;;;;;;6.10;68.71;95917.63;5025533;28;20505;-68
2024/02/07 03:13:10;;;;;;;8.73;3.20;;;;;;;6.11;69.10;95916.72;5017116;28;20540;-68
2024/02/07 03:15:35;;;;;;;9.00;3.40;;;;;;;6.18;68.84;95906.09;5019261;28;20459;-68
2024/02/07 03:18:01;;;;;;;6.60;2.93;;;;;;;6.43;67.91;95903.50;5025102;28;20420;-68
2024/02/07 03:20:27;;;;;;;4.83;3.23;;;;;;;6.28;68.43;95902.25;5026026;28;20189;-69
2024/02/07 03:22:54;;;;;;;5.37;2.97;;;;;;;6.18;68.87;95895.69;5026617;28;20421;-69
2024/02/07 03:25:20;;;;;;;5.13;3.37;;;;;;;6.23;68.69;95885.94;5025958;28;20189;-69
2024/02/07 03:27:49;;;;;;;5.77;3.63;;;;;;;6.33;68.30;95882.09;5017177;28;20466;-69
2024/02/07 03:30:16;;;;;;;4.13;3.17;;;;;;;6.44;67.83;95884.34;5025362;28;20441;-70
2024/02/07 03:32:43;;;;;;;8.20;3.77;;;;;;;6.35;68.48;95875.09;5026202;28;20458;-69
2024/02/07 03:35:09;;;;;;;5.10;3.50;;;;;;;6.29;68.40;95880.53;5028518;28;20430;-68
2024/02/07 03:37:35;;;;;;;6.00;3.73;;;;;;;6.25;68.73;95874.56;5026805;28;20521;-69
2024/02/07 03:40:00;;;;;;;6.80;3.20;;;;;;;6.40;68.57;95882.75;5024894;28;20489;-70
2024/02/07 03:42:26;;;;;;;7.70;3.87;;;;;;;6.46;68.21;95888.59;5023900;28;20238;-68
2024/02/07 03:45:03;;;;;;;4.63;3.63;;;;;;;6.29;69.09;95875.31;5028360;28;20187;-70
2024/02/07 03:47:30;;;;;;;5.33;3.57;;;;;;;6.43;68.25;95877.44;5025726;28;20426;-70
2024/02/07 03:49:56;;;;;;;5.53;3.80;;;;;;;6.31;68.92;95876.13;5028133;28;20468;-70
2024/02/07 03:52:22;;;;;;;5.00;3.70;;;;;;;6.22;69.20;95876.44;5028211;28;20454;-69
2024/02/07 03:54:50;;;;;;;7.70;4.70;;;;;;;6.26;69.07;95870.19;5021684;28;20810;-69
2024/02/07 03:57:19;;;;;;;6.87;4.60;;;;;;;6.23;69.40;95876.38;5027894;28;20174;-69
2024/02/07 03:59:45;;;;;;;8.93;4.07;;;;;;;6.27;69.16;95875.38;5027804;28;20420;-69
2024/02/07 04:02:21;;;;;;;6.23;3.50;;;;;;;6.37;68.68;95862.84;5027400;28;20414;-69
2024/02/07 04:04:49;;;;;;;5.87;3.70;;;;;;;6.46;68.46;95851.25;5028913;28;20480;-68
2024/02/07 04:07:16;;;;;;;6.87;3.40;;;;;;;6.32;68.42;95843.94;5028535;28;20971;-68
2024/02/07 04:09:42;;;;;;;5.63;3.57;;;;;;;6.46;67.86;95846.88;5028294;28;20421;-69
2024/02/07 05:17:06;;;;;;;6.30;3.53;;;;;;;6.36;66.50;95786.44;5026704;28;20504;-68
2024/02/07 05:19:34;;;;;;;5.97;4.20;;;;;;;6.45;66.66;95779.16;5026359;28;20477;-68
2024/02/07 05:21:59;;;;;;;7.20;4.03;;;;;;;6.33;67.05;95783.94;5026739;28;20172;-68
2024/02/07 05:24:26;;;;;;;4.77;3.73;;;;;;;6.39;66.89;95788.06;5027155;28;21085;-69
2024/02/07 05:26:52;;;;;;;4.20;3.57;;;;;;;6.43;66.65;95779.25;5013487;28;20301;-69
2024/02/07 05:29:18;;;;;;;6.23;4.20;;;;;;;6.45;66.71;95782.66;5025158;28;21269;-69
2024/02/07 05:31:44;;;;;;;6.27;3.87;;;;;;;6.40;66.76;95789.75;5026342;28;20178;-68
2024/02/07 05:34:09;;;;;;;7.10;4.67;;;;;;;6.31;67.16;95782.31;5026373;28;20418;-68
2024/02/07 05:36:35;;;;;;;5.43;4.30;;;;;;;6.31;67.05;95780.53;5026996;28;20285;-69
2024/02/07 05:39:02;;;;;;;8.80;4.30;;;;;;;6.40;66.93;95773.28;5027435;28;20172;-69
2024/02/07 05:41:27;;;;;;;5.20;4.73;;;;;;;6.42;66.67;95777.53;5023937;28;20179;-67
2024/02/07 05:43:53;;;;;;;7.60;4.73;;;;;;;6.23;67.29;95769.53;5028959;28;20436;-69
2024/02/07 05:46:19;;;;;;;6.90;4.10;;;;;;;6.29;67.31;95769.31;5023656;28;20195;-70
2024/02/07 05:48:45;;;;;;;5.90;4.73;;;;;;;6.40;67.06;95773.28;5028316;28;20190;-70
2024/02/07 05:51:23;;;;;;;6.10;4.33;;;;;;;6.32;66.92;95766.59;5027522;28;21069;-68
2024/02/07 05:53:49;;;;;;;4.97;4.47;;;;;;;6.42;66.89;95767.09;5026102;28;20228;-69
2024/02/07 05:56:15;;;;;;;9.37;6.00;;;;;;;6.36;67.02;95773.41;5027614;28;20522;-69
2024/02/07 05:58:41;;;;;;;8.07;4.60;;;;;;;6.21;67.49;95773.13;5027016;28;20422;-68
2024/02/07 06:01:07;;;;;;;9.73;4.80;;;;;;;6.27;67.02;95767.69;5022406;28;20453;-68
2024/02/07 06:03:33;;;;;;;6.83;4.47;;;;;;;6.25;67.32;95767.72;5014664;28;20195;-69
2024/02/07 06:05:58;;;;;;;4.93;4.03;;;;;;;6.29;66.90;95755.47;5019186;28;20465;-69
2024/02/07 06:08:24;;;;;;;5.80;4.33;;;;;;;6.31;67.19;95758.84;5026422;28;20183;-70
2024/02/07 06:10:54;;;;;;;7.00;5.63;;;;;;;6.33;66.95;95763.09;5024137;28;20248;-68
2024/02/07 06:13:20;;;;;;;5.60;4.53;;;;;;;6.21;67.66;95767.91;5019895;28;20204;-70
2024/02/07 06:15:45;;;;;;;8.70;5.70;;;;;;;6.28;67.16;95772.84;5020766;28;21069;-68
2024/02/07 06:18:11;;;;;;;6.23;4.00;;;;;;;6.29;67.33;95777.16;5026267;28;20665;-68
2024/02/07 06:20:36;;;;;;;5.17;4.67;;;;;;;6.49;66.71;95758.13;5014023;28;20216;-69
2024/02/07 06:23:02;;;;;;;5.70;4.00;;;;;;;6.54;66.29;95755.34;5017647;28;20785;-70
2024/02/07 06:25:27;;;;;;;6.13;4.47;;;;;;;6.49;66.71;95747.72;5028337;28;20184;-69
2024/02/07 06:27:53;;;;;;;5.63;4.80;;;;;;;6.41;66.63;95747.16;5026067;28;20542;-69
2024/02/07 06:30:18;;;;;;;6.47;4.47;;;;;;;6.43;66.75;95747.97;5024913;28;20170;-70
2024/02/07 06:32:44;;;;;;;6.97;5.10;;;;;;;6.42;66.85;95742.81;5025679;28;20201;-68
2024/02/07 06:35:09;;;;;;;5.60;4.70;;;;;;;6.28;67.24;95744.19;5019562;28;20207;-69
2024/02/07 06:37:35;;;;;;;11.40;5.23;;;;;;;6.39;67.23;95746.38;5025455;28;20237;-69
2024/02/07 06:40:00;;;;;;;9.07;5.93;;;;;;;6.25;67.65;95748.66;5028881;28;20221;-69
2024/02/07 06:42:25;;;;;;;7.47;6.00;;;;;;;6.27;67.76;95752.06;5026359;28;20189;-69
2024/02/07 06:44:51;;;;;;;8.90;5.63;;;;;;;6.34;67.40;95748.31;5021427;28;20195;-69
2024/02/07 06:47:16;;;;;;;7.33;5.80;;;;;;;6.38;67.58;95755.13;5010103;28;20179;-69
2024/02/07 06:49:42;;;;;;;12.50;5.40;;;;;;;6.41;66.88;95755.00;5007024;28;20263;-68
2024/02/07 06:52:07;;;;;;;6.67;4.80;;;;;;;6.69;65.93;95752.19;5005520;28;20195;-69
2024/02/07 06:54:32;;;;;;;9.53;5.07;;;;;;;6.76;65.72;95753.63;5019767;28;20698;-69
2024/02/07 06:56:58;;;;;;;8.93;5.10;;;;;;;6.60;66.33;95747.31;5025468;28;20247;-69
2024/02/07 06:59:23;;;;;;;6.37;4.13;;;;;;;6.67;66.02;95745.31;5016253;28;20179;-69
2024/02/07 07:01:49;;;;;;;7.13;4.80;;;;;;;6.66;66.35;95741.00;5020577;28;20279;-68
2024/02/07 07:04:14;;;;;;;11.80;4.60;;;;;;;7.04;64.90;95730.81;5026294;28;20179;-69
2024/02/07 07:06:39;;;;;;;5.90;4.50;;;;;;;7.65;63.53;95736.06;5027347;28;20195;-68
2024/02/07 07:09:05;;;;;;;8.10;5.33;;;;;;;8.51;59.88;95729.66;5025914;28;20186;-70
2024/02/07 07:11:31;;;;;;;5.40;4.30;;;;;;;8.43;59.66;95721.31;5025781;28;20468;-69
2024/02/07 07:13:57;;;;;;;4.93;4.43;;;;;;;8.03;61.29;95730.94;5020316;28;20465;-70
2024/02/07 07:16:23;;;;;;;4.67;4.10;;;;;;;7.72;61.82;95729.66;5014678;28;20199;-69
2024/02/07 07:18:52;;;;;;;7.97;4.83;;;;;;;7.64;62.33;95730.00;5026328;28;20482;-68
2024/02/07 07:21:18;;;;;;;5.60;4.50;;;;;;;8.47;60.12;95731.56;5030114;28;21019;-69
2024/02/07 07:23:44;;;;;;;6.07;4.53;;;;;;;8.47;60.13;95730.72;5029657;28;20413;-68
2024/02/07 07:26:09;;;;;;;4.73;3.97;;;;;;;8.65;59.17;95724.63;5030143;28;20497;-68
2024/02/07 07:28:34;;;;;;;7.20;5.30;;;;;;;8.41;59.20;95721.41;5028223;28;20280;-68
2024/02/07 07:31:00;;;;;;;7.43;4.97;;;;;;;8.71;59.06;95718.25;5025057;28;20692;-70
2024/02/07 07:33:25;;;;;;;5.63;4.20;;;;;;;9.04;58.20;95715.78;5028481;28;20196;-69
2024/02/07 07:35:51;;;;;;;6.20;4.50;;;;;;;8.83;58.39;95717.66;5022305;28;20270;-69
2024/02/07 07:38:16;;;;;;;4.87;3.77;;;;;;;9.32;57.28;95719.66;5020804;28;20186;-69
2024/02/07 07:40:42;;;;;;;10.63;4.80;;;;;;;9.58;56.15;95702.63;5024920;28;20204;-69
2024/02/07 07:43:07;;;;;;;10.83;4.60;;;;;;;10.14;54.52;95695.38;5021193;28;20282;-68
2024/02/07 07:45:34;;;;;;;10.37;6.23;;;;;;;9.82;55.14;95691.81;5024158;28;20231;-68
2024/02/07 07:47:59;;;;;;;8.80;4.87;;;;;;;9.10;57.00;95688.47;5020304;28;20495;-69
2024/02/07 07:50:25;;;;;;;6.30;5.13;;;;;;;8.55;58.67;95692.00;5024104;28;20650;-69
2024/02/07 07:52:50;;;;;;;4.80;4.30;;;;;;;8.30;59.96;95696.63;5010408;28;20242;-69
2024/02/07 07:55:16;;;;;;;9.80;4.90;;;;;;;8.09;60.68;95690.63;5029349;28;20234;-69
2024/02/07 07:57:41;;;;;;;8.93;5.60;;;;;;;8.09;60.30;95688.84;5028245;28;20260;-68
2024/02/07 08:00:07;;;;;;;6.83;4.63;;;;;;;7.88;61.35;95692.44;5025571;28;20249;-70
2024/02/07 08:02:33;;;;;;;10.80;5.20;;;;;;;7.89;62.02;95688.91;5023706;28;20186;-69
2024/02/07 08:04:58;;;;;;;7.23;5.37;;;;;;;7.98;60.73;95675.41;5027841;28;20442;-69
2024/02/07 08:07:23;;;;;;;8.53;4.70;;;;;;;7.97;61.73;95676.34;5029792;28;20176;-69
2024/02/07 08:09:49;;;;;;;7.67;4.67;;;;;;;7.97;61.37;95678.97;5029209;28;20219;-69
2024/02/07 08:12:17;;;;;;;8.40;5.07;;;;;;;8.04;61.24;95689.06;5030963;28;20219;-69
2024/02/07 08:14:42;;;;;;;5.50;4.43;;;;;;;8.32;61.12;95681.72;5024979;28;20179;-69
2024/02/07 08:17:08;;;;;;;8.50;5.73;;;;;;;8.54;60.03;95671.97;5026915;28;20441;-70
2024/02/07 08:19:33;;;;;;;6.87;4.97;;;;;;;9.91;56.73;95670.38;5022927;28;20662;-69
2024/02/07 08:21:58;;;;;;;7.90;4.90;;;;;;;10.97;53.42;95659.31;5019320;28;20230;-68
2024/02/07 08:24:26;;;;;;;5.33;4.83;;;;;;;12.47;48.97;95649.44;5010996;28;20766;-69
2024/02/07 08:26:52;;;;;;;12.00;4.73;;;;;;;13.65;45.83;95638.22;5026691;28;20180;-68
2024/02/07 08:29:17;;;;;;;7.23;4.60;;;;;;;13.54;45.79;95636.34;5022902;28;20923;-69
2024/02/07 08:31:42;;;;;;;6.20;4.50;;;;;;;12.39;48.62;95638.56;5015987;28;20184;-70
2024/02/07 08:34:08;;;;;;;8.77;4.60;;;;;;;11.59;50.31;95657.41;5017208;28;20318;-69
2024/02/07 08:36:33;;;;;;;11.80;4.83;;;;;;;11.13;52.25;95667.19;5027734;28;20214;-70
2024/02/07 08:38:59;;;;;;;10.60;5.03;;;;;;;10.51;54.04;95670.66;5028433;28;20717;-69
2024/02/07 08:41:25;;;;;;;10.87;5.70;;;;;;;10.31;55.12;95668.25;5022828;28;20182;-69
2024/02/07 08:43:51;;;;;;;11.13;5.77;;;;;;;9.76;56.69;95664.16;5025380;28;20175;-68
2024/02/07 08:46:16;;;;;;;7.20;5.23;;;;;;;9.50;57.47;95661.13;5024012;28;20504;-69
2024/02/07 08:48:43;;;;;;;9.00;5.50;;;;;;;9.29;58.92;95662.22;5028146;28;20191;-68
2024/02/07 08:51:09;;;;;;;6.57;5.00;;;;;;;9.13;59.14;95663.91;5026888;28;20222;-69
2024/02/07 08:53:34;;;;;;;7.70;4.77;;;;;;;9.03;59.52;95664.38;5021030;28;21044;-70
2024/02/07 08:56:00;;;;;;;5.73;4.50;;;;;;;9.04;59.84;95658.19;5026015;28;20211;-70
2024/02/07 08:58:25;;;;;;;5.67;4.63;;;;;;;8.93;60.03;95655.28;5022392;28;20180;-70
2024/02/07 09:00:51;;;;;;;6.53;4.70;;;;;;;8.89;60.14;95672.91;5023911;28;20187;-68
2024/02/07 09:03:16;;;;;;;9.63;5.40;;;;;;;8.88;61.31;95663.38;5027967;28;20186;-68
2024/02/07 09:05:42;;;;;;;7.00;4.47;;;;;;;8.91;60.79;95657.13;5027278;28;20203;-68
2024/02/07 09:08:07;;;;;;;9.07;5.20;;;;;;;8.73;61.38;95660.63;5019140;28;20524;-70
2024/02/07 09:10:33;;;;;;;8.03;4.57;;;;;;;8.78;61.30;95659.47;5027064;28;20659;-68
2024/02/07 09:12:59;;;;;;;6.67;4.50;;;;;;;8.72;61.59;95654.56;5026783;28;20203;-69
2024/02/07 09:15:25;;;;;;;6.20;4.97;;;;;;;8.56;62.02;95646.59;5022762;28;20286;-68
2024/02/07 09:17:50;;;;;;;6.30;5.07;;;;;;;8.51;62.32;95645.97;5024838;28;20466;-70
2024/02/07 09:20:16;;;;;;;10.53;4.77;;;;;;;8.62;62.32;95655.91;5027588;28;20513;-68
2024/02/07 09:22:41;;;;;;;8.47;5.33;;;;;;;8.60;61.74;95648.16;5032447;28;20175;-69
2024/02/07 09:25:07;;;;;;;8.20;5.27;;;;;;;8.55;62.80;95652.78;5030619;28;20598;-69
2024/02/07 09:27:32;;;;;;;11.27;4.90;;;;;;;8.52;62.30;95652.91;5042289;28;20187;-70
2024/02/07 09:29:58;;;;;;;6.20;4.47;;;;;;;8.56;61.74;95646.59;5035384;28;20188;-69
2024/02/07 09:32:24;;;;;;;7.40;5.23;;;;;;;8.61;61.61;95644.59;5040744;28;20207;-70
2024/02/07 09:34:50;;;;;;;11.53;5.67;;;;;;;8.52;62.34;95645.06;5028357;28;20616;-70
2024/02/07 09:37:16;;;;;;;16.73;6.53;;;;;;;8.53;61.83;95641.53;5026473;28;20187;-70
2024/02/07 09:39:41;;;;;;;9.50;5.10;;;;;;;8.54;62.40;95643.22;5025337;28;21271;-68
2024/02/07 09:42:11;;;;;;;15.97;6.30;;;;;;;8.57;62.74;95643.06;5025917;28;20253;-69
2024/02/07 09:44:40;;;;;;;9.03;5.40;;;;;;;8.61;62.59;95638.53;5026245;28;20773;-68
2024/02/07 09:47:13;;;;;;;10.90;5.23;;;;;;;8.54;62.96;95651.06;5022116;28;20421;-69
2024/02/07 09:49:46;;;;;;;13.67;5.80;;;;;;;8.63;62.68;95641.94;5027612;28;21001;-70
2024/02/07 09:52:14;;;;;;;6.10;4.30;;;;;;;8.72;61.57;95635.38;5018950;28;20414;-69
2024/02/07 09:54:46;;;;;;;5.50;4.20;;;;;;;8.73;62.21;95647.56;5026595;28;20418;-70
2024/02/07 09:57:13;;;;;;;6.33;4.93;;;;;;;8.87;61.35;95637.25;5027110;28;20412;-70
2024/02/07 09:59:38;;;;;;;6.97;5.00;;;;;;;8.78;61.68;95633.31;5011803;28;20411;-70
2024/02/07 10:02:06;;;;;;;9.93;5.30;;;;;;;8.99;61.29;95631.41;5024757;28;20544;-68
2024/02/07 10:04:37;;;;;;;9.27;5.20;;;;;;;9.06;61.39;95629.34;5018759;28;20849;-69
2024/02/07 10:07:09;;;;;;;7.40;5.10;;;;;;;9.26;60.20;95617.84;5017394;28;20419;-70
2024/02/07 10:09:35;;;;;;;10.63;5.70;;;;;;;9.24;60.47;95628.41;5014776;28;20426;-69
2024/02/07 10:12:01;;;;;;;16.50;5.97;;;;;;;9.22;60.78;95632.88;5016097;28;20426;-69
2024/02/07 10:14:26;;;;;;;9.30;4.87;;;;;;;9.19;61.11;95629.56;5026525;28;20172;-70
2024/02/07 10:16:52;;;;;;;11.20;5.00;;;;;;;9.18;60.89;95633.94;5026136;28;20452;-69
2024/02/07 10:19:17;;;;;;;9.90;5.70;;;;;;;9.11;61.17;95636.03;5031288;28;20179;-68
2024/02/07 10:21:42;;;;;;;11.40;4.47;;;;;;;8.99;61.99;95636.66;5013624;28;20642;-69
2024/02/07 10:24:08;;;;;;;9.40;4.63;;;;;;;9.14;61.35;95634.19;5016641;28;20238;-68
2024/02/07 10:26:33;;;;;;;6.53;4.70;;;;;;;9.27;61.36;95627.41;5022393;28;20207;-68
2024/02/07 10:29:04;;;;;;;5.63;4.50;;;;;;;9.91;62.30;95629.28;5027366;28;20199;-68
2024/02/07 10:31:30;;;;;;;10.50;4.63;;;;;;;10.48;63.97;95617.50;5020909;28;20211;-67
2024/02/07 10:33:59;;;;;;;8.53;4.20;;;;;;;10.49;58.32;95616.56;5020239;28;20893;-68
2024/02/07 10:36:25;;;;;;;19.97;6.63;;;;;;;10.03;60.48;95609.41;5022340;28;20219;-68
2024/02/07 10:38:53;;;;;;;5.80;3.70;;;;;;;9.78;59.24;95604.69;5019981;28;20418;-69
2024/02/07 10:41:20;;;;;;;7.90;4.63;;;;;;;9.81;59.36;95590.56;5018259;28;20180;-69
2024/02/07 10:43:45;;;;;;;6.07;4.30;;;;;;;9.64;59.72;95604.56;5023015;28;20418;-67
2024/02/07 10:46:15;;;;;;;13.13;4.90;;;;;;;9.59;60.25;95604.81;5018672;28;20942;-68
2024/02/07 10:48:41;;;;;;;5.33;4.77;;;;;;;9.65;59.80;95596.59;5022963;28;20519;-69
2024/02/07 10:51:06;;;;;;;5.80;4.27;;;;;;;9.65;59.83;95590.53;5028147;28;20509;-70
2024/02/07 10:53:35;;;;;;;4.83;3.50;;;;;;;9.60;60.29;95584.69;5034076;28;20203;-69
2024/02/07 10:56:02;;;;;;;6.87;4.20;;;;;;;9.65;59.75;95580.03;5033148;28;20202;-68
2024/02/07 10:58:29;;;;;;;5.70;4.03;;;;;;;9.70;59.39;95584.09;5028752;28;20422;-68
2024/02/07 11:00:55;;;;;;;5.60;4.40;;;;;;;9.94;58.71;95571.47;5024548;28;20852;-70
2024/02/07 11:03:23;;;;;;;11.47;5.73;;;;;;;10.05;58.73;95580.50;5031271;28;20747;-69
2024/02/07 11:05:50;;;;;;;21.43;6.80;;;;;;;10.18;57.96;95568.41;5033178;28;20537;-69
2024/02/07 11:08:16;;;;;;;18.77;5.70;;;;;;;10.27;57.95;95562.63;5031766;28;20429;-68
2024/02/07 11:10:42;;;;;;;29.83;7.70;;;;;;;10.38;57.58;95555.06;5032549;28;20810;-69
2024/02/07 11:13:12;;;;;;;19.00;6.70;;;;;;;10.28;57.90;95547.78;5023488;28;20481;-69
2024/02/07 11:15:40;;;;;;;11.10;4.90;;;;;;;10.22;58.35;95535.00;5030853;28;20860;-69
2024/02/07 11:18:10;;;;;;;13.37;5.10;;;;;;;10.37;57.63;95528.94;5022864;28;21266;-70
2024/02/07 11:20:36;;;;;;;8.47;4.70;;;;;;;10.40;57.42;95527.91;5023083;28;20422;-69
2024/02/07 11:23:10;;;;;;;10.47;4.97;;;;;;;10.23;58.43;95515.69;5032649;28;20414;-69
2024/02/07 11:25:36;;;;;;;10.40;5.10;;;;;;;10.23;58.10;95519.19;5029611;28;20446;-69
2024/02/07 11:28:02;;;;;;;8.50;4.90;;;;;;;10.45;58.00;95512.75;5030244;28;20505;-67
2024/02/07 11:30:29;;;;;;;24.93;5.63;;;;;;;10.74;56.72;95506.63;5029818;28;21132;-70
2024/02/07 11:32:56;;;;;;;24.27;6.93;;;;;;;10.64;57.33;95507.28;5030869;28;21000;-69
2024/02/07 11:35:22;;;;;;;9.57;4.90;;;;;;;10.65;57.57;95494.06;5024226;28;20447;-70
2024/02/07 11:37:51;;;;;;;13.03;5.37;;;;;;;10.66;57.32;95489.69;5031243;28;21225;-70
2024/02/07 11:40:19;;;;;;;6.23;5.00;;;;;;;10.71;57.41;95487.63;5019249;28;20597;-69
2024/02/07 11:42:44;;;;;;;11.47;5.10;;;;;;;10.67;57.49;95497.44;5026662;28;20422;-71
2024/02/07 11:45:15;;;;;;;12.10;6.23;;;;;;;10.78;56.44;95473.19;5022122;28;20457;-69
2024/02/07 11:47:44;;;;;;;10.17;5.10;;;;;;;10.66;57.73;95481.81;5028242;28;20270;-70
2024/02/07 11:50:14;;;;;;;9.00;4.60;;;;;;;10.78;57.44;95479.28;5023743;28;20426;-70
2024/02/07 11:52:41;;;;;;;5.77;4.87;;;;;;;10.67;57.62;95472.97;5027195;28;20467;-69
2024/02/07 11:55:12;;;;;;;6.57;4.70;;;;;;;10.67;57.99;95454.63;5031665;28;20924;-70
2024/02/07 11:57:52;;;;;;;9.70;4.77;;;;;;;10.70;57.36;95455.28;5024744;28;20451;-73
2024/02/07 12:00:20;;;;;;;6.90;4.27;;;;;;;10.59;57.79;95471.66;5020493;28;20520;-69
2024/02/07 12:02:58;;;;;;;7.93;3.97;;;;;;;10.69;57.63;95453.59;5026575;28;20429;-68
2024/02/07 12:05:25;;;;;;;10.00;5.60;;;;;;;10.65;57.62;95459.94;5031474;28;20442;-69
2024/02/07 12:07:52;;;;;;;5.63;4.00;;;;;;;10.56;58.04;95440.38;5030581;28;20422;-70
2024/02/07 12:10:18;;;;;;;5.87;4.20;;;;;;;10.45;58.13;95455.03;5027710;28;20411;-69
2024/02/07 12:12:43;;;;;;;9.03;4.77;;;;;;;10.46;57.96;95451.47;5025439;28;20464;-70
2024/02/07 12:15:09;;;;;;;8.00;4.37;;;;;;;10.38;58.69;95452.78;5030413;28;20226;-68
2024/02/07 12:17:35;;;;;;;6.80;3.90;;;;;;;10.35;58.32;95446.88;5030084;28;20190;-69
2024/02/07 12:20:04;;;;;;;6.90;4.30;;;;;;;10.31;58.62;95448.81;5032648;28;20179;-69
2024/02/07 12:22:35;;;;;;;9.57;4.10;;;;;;;10.34;58.91;95443.38;5030280;28;20406;-69
2024/02/07 12:25:02;;;;;;;9.00;4.53;;;;;;;10.37;58.90;95447.63;5026673;28;20458;-69
2024/02/07 12:27:28;;;;;;;7.00;4.00;;;;;;;10.33;58.92;95446.97;5034066;28;20490;-69
2024/02/07 12:29:55;;;;;;;10.40;4.63;;;;;;;10.30;59.07;95448.91;5021313;28;20784;-69
2024/02/07 12:32:22;;;;;;;7.77;4.67;;;;;;;10.22;59.19;95443.22;5019678;28;20194;-69
2024/02/07 12:34:48;;;;;;;7.33;5.77;;;;;;;10.28;58.97;95432.41;5024113;28;20445;-69
2024/02/07 12:37:15;;;;;;;9.73;4.17;;;;;;;10.22;59.03;95438.81;5020419;28;20847;-68
2024/02/07 12:39:46;;;;;;;7.83;5.60;;;;;;;10.28;59.29;95428.03;5022687;28;20427;-70
2024/02/07 12:42:19;;;;;;;9.60;5.37;;;;;;;10.30;59.02;95438.41;5010510;28;20446;-68
2024/02/07 12:44:48;;;;;;;9.10;4.63;;;;;;;10.32;59.18;95437.41;5025081;28;20529;-69